Sarah — WDF6721 — position and weather

sailwx.info

Track history (hours):
 
Tides and Currents Weather Stations Pressure Air Temp Water Temp Dewpoint Dewpoint Depression Visibility Wind Speed Wind Dir Waves Ship Positions

Sarah

Owner: M/V Sarah, Pass Christian, MS. More information available from US FCC via Universal Licensing System and Coast Guard Vessel Documentation Center.

Last reported at 2017-Nov-27 12:37 UTC. Time now 2018-Feb-18 18:24 UTC.
Position N 39°16' W 076°35'.
Warning: this ship's position is months out of date.

Length 34 m; draft 4 m.

Type: Tug. MMSI: 367477180.

Date/timePositionNaut miles runAvg speedWind from/ knotsBaromVisibWave heightAir tempDewpointWater temp
2017-Nov-27 12:37N 39°16' W 076°35'0 2.0
2017-Nov-27 12:30N 39°16' W 076°35'2 4.3
2017-Nov-27 12:00N 39°15' W 076°33'2 3.7
2017-Nov-27 11:30N 39°13' W 076°32'0 0.5
2017-Nov-27 10:59N 39°13' W 076°32'3 5.8
2017-Nov-27 10:31N 39°15' W 076°34'1 2.4
2017-Nov-27 10:01N 39°16' W 076°35'0 0.0
2017-Nov-27 09:31N 39°16' W 076°35'0 0.0
2017-Nov-27 09:00N 39°16' W 076°35'0 0.0
2017-Nov-27 08:31N 39°16' W 076°35'0 0.0
2017-Nov-27 08:01N 39°16' W 076°35'0 0.0
2017-Nov-27 07:31N 39°16' W 076°35'0 0.0
2017-Nov-27 07:00N 39°16' W 076°35'0 0.0
2017-Nov-27 06:30N 39°16' W 076°35'0 0.0
2017-Nov-27 06:00N 39°16' W 076°35'0 0.0
2017-Nov-27 05:30N 39°16' W 076°35'0 0.0
2017-Nov-27 05:00N 39°16' W 076°35'0 0.0
2017-Nov-27 04:30N 39°16' W 076°35'0 0.0
2017-Nov-27 04:00N 39°16' W 076°35'0 0.0
2017-Nov-27 03:30N 39°16' W 076°35'0 0.0
2017-Nov-27 03:00N 39°16' W 076°35'0 0.0
2017-Nov-27 02:31N 39°16' W 076°35'0 0.0
2017-Nov-27 02:00N 39°16' W 076°35'0 0.0
2017-Nov-27 01:30N 39°16' W 076°35'0 0.0
2017-Nov-27 01:00N 39°16' W 076°35'0 0.0
2017-Nov-27 00:30N 39°16' W 076°35'0 0.9
2017-Nov-27 00:01N 39°16' W 076°35'4 6.3
2017-Nov-26 23:25N 39°13' W 076°32'1 1.1
2017-Nov-26 22:56N 39°13' W 076°32'0 1.1
2017-Nov-26 22:30N 39°13' W 076°31'2 3.3
2017-Nov-26 22:01N 39°14' W 076°33'3 5.2
2017-Nov-26 21:31N 39°16' W 076°35'0 0.7
2017-Nov-26 21:01N 39°16' W 076°35'0 0.0
2017-Nov-26 20:30N 39°16' W 076°35'0 0.0
2017-Nov-26 20:00N 39°16' W 076°35'0 0.0
2017-Nov-26 19:30N 39°16' W 076°35'0 0.0
2017-Nov-26 19:00N 39°16' W 076°35'0 0.0
2017-Nov-26 18:30N 39°16' W 076°35'0 0.0
2017-Nov-26 18:00N 39°16' W 076°35'0 0.0
2017-Nov-26 17:30N 39°16' W 076°35'0 0.0
2017-Nov-26 17:00N 39°16' W 076°35'0 0.0
2017-Nov-26 16:30N 39°16' W 076°35'0 0.0
2017-Nov-26 16:00N 39°16' W 076°35'0 0.0
2017-Nov-26 15:30N 39°16' W 076°35'0 0.0
2017-Nov-26 15:00N 39°16' W 076°35'0 0.0
2017-Nov-26 14:30N 39°16' W 076°35'0 0.0
2017-Nov-26 14:00N 39°16' W 076°35'0 0.0
2017-Nov-26 13:30N 39°16' W 076°35'0 0.0
2017-Nov-26 13:00N 39°16' W 076°35'0 0.0
2017-Nov-26 12:30N 39°16' W 076°35'0 0.0
2017-Nov-26 12:00N 39°16' W 076°35'0 0.0
2017-Nov-26 11:30N 39°16' W 076°35'0 0.0
2017-Nov-26 11:00N 39°16' W 076°35'0 0.0
2017-Nov-26 10:30N 39°16' W 076°35'0 0.0
2017-Nov-26 10:00N 39°16' W 076°35'0 0.0
2017-Nov-26 09:30N 39°16' W 076°35'0 0.0
2017-Nov-26 09:00N 39°16' W 076°35'0 0.0
2017-Nov-26 08:30N 39°16' W 076°35'0 0.0
2017-Nov-26 08:00N 39°16' W 076°35'0 0.0
2017-Nov-26 07:30N 39°16' W 076°35'0 0.0
2017-Nov-26 07:00N 39°16' W 076°35'0 0.0
2017-Nov-26 06:30N 39°16' W 076°35'0 0.0
2017-Nov-26 06:00N 39°16' W 076°35'0 0.0
2017-Nov-26 05:30N 39°16' W 076°35'0 0.0
2017-Nov-26 05:00N 39°16' W 076°35'0 0.0
2017-Nov-26 04:30N 39°16' W 076°35'0 0.0
2017-Nov-26 04:00N 39°16' W 076°35'0 0.0
2017-Nov-26 03:30N 39°16' W 076°35'0 0.0
2017-Nov-26 03:00N 39°16' W 076°35'0 0.0
2017-Nov-26 02:30N 39°16' W 076°35'0 0.0
2017-Nov-26 02:00N 39°16' W 076°35'0 0.0
2017-Nov-26 01:30N 39°16' W 076°35'0 0.0
2017-Nov-26 01:00N 39°16' W 076°35'0 0.0
2017-Nov-26 00:30N 39°16' W 076°35'0 0.0
2017-Nov-26 00:00N 39°16' W 076°35'0 0.0
2017-Nov-25 23:30N 39°16' W 076°35'0 0.0
2017-Nov-25 23:00N 39°16' W 076°35'0 0.0
2017-Nov-25 22:30N 39°16' W 076°35'0 0.0
2017-Nov-25 22:00N 39°16' W 076°35'0 0.0
2017-Nov-25 21:30N 39°16' W 076°35'0 0.0
2017-Nov-25 21:00N 39°16' W 076°35'0 0.0
2017-Nov-25 20:30N 39°16' W 076°35'0 0.0
2017-Nov-25 20:00N 39°16' W 076°35'0 0.0
2017-Nov-25 19:30N 39°16' W 076°35'0 0.0
2017-Nov-25 19:00N 39°16' W 076°35'0 0.0
2017-Nov-25 18:30N 39°16' W 076°35'0 0.0
2017-Nov-25 18:00N 39°16' W 076°35'0 0.0
2017-Nov-25 17:30N 39°16' W 076°35'0 0.0
2017-Nov-25 17:00N 39°16' W 076°35'0 0.0
2017-Nov-25 16:30N 39°16' W 076°35'0 0.0
2017-Nov-25 16:00N 39°16' W 076°35'0 0.0
2017-Nov-25 15:30N 39°16' W 076°35'0 0.0
2017-Nov-25 15:00N 39°16' W 076°35'0 0.0
2017-Nov-25 14:30N 39°16' W 076°35'0 0.0
2017-Nov-25 14:00N 39°16' W 076°35'0 0.0
2017-Nov-25 13:30N 39°16' W 076°35'0 0.0
2017-Nov-25 13:00N 39°16' W 076°35'0 0.0
2017-Nov-25 12:30N 39°16' W 076°35'0 0.0
2017-Nov-25 12:00N 39°16' W 076°35'0 0.0
2017-Nov-25 11:30N 39°16' W 076°35'0 0.0
2017-Nov-25 11:00N 39°16' W 076°35'0 0.0
2017-Nov-25 10:30N 39°16' W 076°35'0 0.0
2017-Nov-25 10:00N 39°16' W 076°35'0 0.0
2017-Nov-25 09:30N 39°16' W 076°35'0 0.0
2017-Nov-25 09:00N 39°16' W 076°35'0 0.0
2017-Nov-25 08:30N 39°16' W 076°35'0 0.0
2017-Nov-25 08:00N 39°16' W 076°35'0 0.0
2017-Nov-25 07:30N 39°16' W 076°35'0 0.0
2017-Nov-25 07:00N 39°16' W 076°35'0 0.0
2017-Nov-25 06:30N 39°16' W 076°35'0 0.0
2017-Nov-25 06:00N 39°16' W 076°35'0 0.0
2017-Nov-25 05:30N 39°16' W 076°35'0 0.0
2017-Nov-25 05:00N 39°16' W 076°35'0 0.0
2017-Nov-25 04:30N 39°16' W 076°35'1 1.2
2017-Nov-25 04:00N 39°16' W 076°34'  
Track history (hours):
 
Tides and Currents Weather Stations Pressure Air Temp Water Temp Dewpoint Dewpoint Depression Visibility Wind Speed Wind Dir Waves Ship Positions

Sarah

Owner: M/V Sarah, Pass Christian, MS. More information available from US FCC via Universal Licensing System and Coast Guard Vessel Documentation Center.

Last reported at 2017-Nov-27 12:37 UTC. Time now 2018-Feb-18 18:24 UTC.
Position N 39°16' W 076°35'.
Warning: this ship's position is months out of date.

Length 34 m; draft 4 m.

Type: Tug. MMSI: 367477180.

Date/timePositionNaut miles runAvg speedWind from/ knotsBaromVisibWave heightAir tempDewpointWater temp
2017-Nov-27 12:37N 39°16' W 076°35'0 2.0
2017-Nov-27 12:30N 39°16' W 076°35'2 4.3
2017-Nov-27 12:00N 39°15' W 076°33'2 3.7
2017-Nov-27 11:30N 39°13' W 076°32'0 0.5
2017-Nov-27 10:59N 39°13' W 076°32'3 5.8
2017-Nov-27 10:31N 39°15' W 076°34'1 2.4
2017-Nov-27 10:01N 39°16' W 076°35'0 0.0
2017-Nov-27 09:31N 39°16' W 076°35'0 0.0
2017-Nov-27 09:00N 39°16' W 076°35'0 0.0
2017-Nov-27 08:31N 39°16' W 076°35'0 0.0
2017-Nov-27 08:01N 39°16' W 076°35'0 0.0
2017-Nov-27 07:31N 39°16' W 076°35'0 0.0
2017-Nov-27 07:00N 39°16' W 076°35'0 0.0
2017-Nov-27 06:30N 39°16' W 076°35'0 0.0
2017-Nov-27 06:00N 39°16' W 076°35'0 0.0
2017-Nov-27 05:30N 39°16' W 076°35'0 0.0
2017-Nov-27 05:00N 39°16' W 076°35'0 0.0
2017-Nov-27 04:30N 39°16' W 076°35'0 0.0
2017-Nov-27 04:00N 39°16' W 076°35'0 0.0
2017-Nov-27 03:30N 39°16' W 076°35'0 0.0
2017-Nov-27 03:00N 39°16' W 076°35'0 0.0
2017-Nov-27 02:31N 39°16' W 076°35'0 0.0
2017-Nov-27 02:00N 39°16' W 076°35'0 0.0
2017-Nov-27 01:30N 39°16' W 076°35'0 0.0
2017-Nov-27 01:00N 39°16' W 076°35'0 0.0
2017-Nov-27 00:30N 39°16' W 076°35'0 0.9
2017-Nov-27 00:01N 39°16' W 076°35'4 6.3
2017-Nov-26 23:25N 39°13' W 076°32'1 1.1
2017-Nov-26 22:56N 39°13' W 076°32'0 1.1
2017-Nov-26 22:30N 39°13' W 076°31'2 3.3
2017-Nov-26 22:01N 39°14' W 076°33'3 5.2
2017-Nov-26 21:31N 39°16' W 076°35'0 0.7
2017-Nov-26 21:01N 39°16' W 076°35'0 0.0
2017-Nov-26 20:30N 39°16' W 076°35'0 0.0
2017-Nov-26 20:00N 39°16' W 076°35'0 0.0
2017-Nov-26 19:30N 39°16' W 076°35'0 0.0
2017-Nov-26 19:00N 39°16' W 076°35'0 0.0
2017-Nov-26 18:30N 39°16' W 076°35'0 0.0
2017-Nov-26 18:00N 39°16' W 076°35'0 0.0
2017-Nov-26 17:30N 39°16' W 076°35'0 0.0
2017-Nov-26 17:00N 39°16' W 076°35'0 0.0
2017-Nov-26 16:30N 39°16' W 076°35'0 0.0
2017-Nov-26 16:00N 39°16' W 076°35'0 0.0
2017-Nov-26 15:30N 39°16' W 076°35'0 0.0
2017-Nov-26 15:00N 39°16' W 076°35'0 0.0
2017-Nov-26 14:30N 39°16' W 076°35'0 0.0
2017-Nov-26 14:00N 39°16' W 076°35'0 0.0
2017-Nov-26 13:30N 39°16' W 076°35'0 0.0
2017-Nov-26 13:00N 39°16' W 076°35'0 0.0
2017-Nov-26 12:30N 39°16' W 076°35'0 0.0
2017-Nov-26 12:00N 39°16' W 076°35'0 0.0
2017-Nov-26 11:30N 39°16' W 076°35'0 0.0
2017-Nov-26 11:00N 39°16' W 076°35'0 0.0
2017-Nov-26 10:30N 39°16' W 076°35'0 0.0
2017-Nov-26 10:00N 39°16' W 076°35'0 0.0
2017-Nov-26 09:30N 39°16' W 076°35'0 0.0
2017-Nov-26 09:00N 39°16' W 076°35'0 0.0
2017-Nov-26 08:30N 39°16' W 076°35'0 0.0
2017-Nov-26 08:00N 39°16' W 076°35'0 0.0
2017-Nov-26 07:30N 39°16' W 076°35'0 0.0
2017-Nov-26 07:00N 39°16' W 076°35'0 0.0
2017-Nov-26 06:30N 39°16' W 076°35'0 0.0
2017-Nov-26 06:00N 39°16' W 076°35'0 0.0
2017-Nov-26 05:30N 39°16' W 076°35'0 0.0
2017-Nov-26 05:00N 39°16' W 076°35'0 0.0
2017-Nov-26 04:30N 39°16' W 076°35'0 0.0
2017-Nov-26 04:00N 39°16' W 076°35'0 0.0
2017-Nov-26 03:30N 39°16' W 076°35'0 0.0
2017-Nov-26 03:00N 39°16' W 076°35'0 0.0
2017-Nov-26 02:30N 39°16' W 076°35'0 0.0
2017-Nov-26 02:00N 39°16' W 076°35'0 0.0
2017-Nov-26 01:30N 39°16' W 076°35'0 0.0
2017-Nov-26 01:00N 39°16' W 076°35'0 0.0
2017-Nov-26 00:30N 39°16' W 076°35'0 0.0
2017-Nov-26 00:00N 39°16' W 076°35'0 0.0
2017-Nov-25 23:30N 39°16' W 076°35'0 0.0
2017-Nov-25 23:00N 39°16' W 076°35'0 0.0
2017-Nov-25 22:30N 39°16' W 076°35'0 0.0
2017-Nov-25 22:00N 39°16' W 076°35'0 0.0
2017-Nov-25 21:30N 39°16' W 076°35'0 0.0
2017-Nov-25 21:00N 39°16' W 076°35'0 0.0
2017-Nov-25 20:30N 39°16' W 076°35'0 0.0
2017-Nov-25 20:00N 39°16' W 076°35'0 0.0
2017-Nov-25 19:30N 39°16' W 076°35'0 0.0
2017-Nov-25 19:00N 39°16' W 076°35'0 0.0
2017-Nov-25 18:30N 39°16' W 076°35'0 0.0
2017-Nov-25 18:00N 39°16' W 076°35'0 0.0
2017-Nov-25 17:30N 39°16' W 076°35'0 0.0
2017-Nov-25 17:00N 39°16' W 076°35'0 0.0
2017-Nov-25 16:30N 39°16' W 076°35'0 0.0
2017-Nov-25 16:00N 39°16' W 076°35'0 0.0
2017-Nov-25 15:30N 39°16' W 076°35'0 0.0
2017-Nov-25 15:00N 39°16' W 076°35'0 0.0
2017-Nov-25 14:30N 39°16' W 076°35'0 0.0
2017-Nov-25 14:00N 39°16' W 076°35'0 0.0
2017-Nov-25 13:30N 39°16' W 076°35'0 0.0
2017-Nov-25 13:00N 39°16' W 076°35'0 0.0
2017-Nov-25 12:30N 39°16' W 076°35'0 0.0
2017-Nov-25 12:00N 39°16' W 076°35'0 0.0
2017-Nov-25 11:30N 39°16' W 076°35'0 0.0
2017-Nov-25 11:00N 39°16' W 076°35'0 0.0
2017-Nov-25 10:30N 39°16' W 076°35'0 0.0
2017-Nov-25 10:00N 39°16' W 076°35'0 0.0
2017-Nov-25 09:30N 39°16' W 076°35'0 0.0
2017-Nov-25 09:00N 39°16' W 076°35'0 0.0
2017-Nov-25 08:30N 39°16' W 076°35'0 0.0
2017-Nov-25 08:00N 39°16' W 076°35'0 0.0
2017-Nov-25 07:30N 39°16' W 076°35'0 0.0
2017-Nov-25 07:00N 39°16' W 076°35'0 0.0
2017-Nov-25 06:30N 39°16' W 076°35'0 0.0
2017-Nov-25 06:00N 39°16' W 076°35'0 0.0
2017-Nov-25 05:30N 39°16' W 076°35'0 0.0
2017-Nov-25 05:00N 39°16' W 076°35'0 0.0
2017-Nov-25 04:30N 39°16' W 076°35'1 1.2
2017-Nov-25 04:00N 39°16' W 076°34'  

Dump ship's entire track history